This is the latest recevied weather packets stored in our database for station/object YO9FTR-10. If no packets are shown the sender has not sent any weather packets the latest 10 day(s).
| Time | Temp. | Humidity | Pressure | Rain* | Wind** | Luminosity | Snow |
|---|---|---|---|---|---|---|---|
| 1777662396 | 5° C | 72% | 1028.4 hPa | - | - | - | - |
| 1777661492 | 5° C | 76% | 1028.3 hPa | - | - | - | - |
| 1777660589 | 5° C | 73% | 1028.2 hPa | - | - | - | - |
| 1777659686 | 5.56° C | 62% | 1028.3 hPa | - | - | - | - |
| 1777658783 | 5.56° C | 65% | 1028 hPa | - | - | - | - |
| 1777657881 | 6.11° C | 62% | 1027.9 hPa | - | - | - | - |
| 1777656978 | 5.56° C | 61% | 1027.8 hPa | - | - | - | - |
| 1777656074 | 5.56° C | 63% | 1027.6 hPa | - | - | - | - |
| 1777655171 | 6.67° C | 56% | 1027.5 hPa | - | - | - | - |
| 1777654268 | 6.67° C | 55% | 1027.5 hPa | - | - | - | - |
| 1777653365 | 6.67° C | 53% | 1027.3 hPa | - | - | - | - |
| 1777652462 | 7.22° C | 52% | 1027.1 hPa | - | - | - | - |
| 1777651559 | 7.78° C | 49% | 1027 hPa | - | - | - | - |
| 1777650656 | 10.56° C | 34% | 1026.6 hPa | - | - | - | - |
| 1777649753 | 10° C | 35% | 1026.5 hPa | - | - | - | - |
| 1777648850 | 11.67° C | 31% | 1026.5 hPa | - | - | - | - |
| 1777647947 | 10° C | 38% | 1026.6 hPa | - | - | - | - |
| 1777647044 | 10.56° C | 31% | 1026.6 hPa | - | - | - | - |
| 1777646140 | 10.56° C | 34% | 1026.8 hPa | - | - | - | - |
| 1777645238 | 10.56° C | 32% | 1026.8 hPa | - | - | - | - |
| 1777644336 | 12.22° C | 31% | 1026.8 hPa | - | - | - | - |
| 1777643433 | 11.67° C | 32% | 1026.8 hPa | - | - | - | - |
| 1777642530 | 9.44° C | 32% | 1027 hPa | - | - | - | - |
| 1777641627 | 9.44° C | 36% | 1027.2 hPa | - | - | - | - |
| 1777640723 | 10° C | 34% | 1027.1 hPa | - | - | - | - |
* Rain since midnight (hover to see other rain measurements)
** Current wind speed in m/s (hover to see current wind gust speed)